KLM235 EHAM-LPMA
Flight info
| Callsign | KLM235 |
|---|---|
| Flight time | N/A |
| Altitude | 23000 |
| Route | WOODY N872 CIV/N0450F350 DCT KOVIN DCT DUCRA DCT RESMI DCT DEKOD DCT DISAK DCT ARKIP DCT ARNAV DCT LMG DCT UVELI DCT OSMOB DCT VAVIX DCT BTZ DCT URUNA DCT SSN DCT VRA DCT NEA DCT ARDID DCT FTM/N0452F370 DCT BUSEN DCT ROLAR DCT RAKUN |
| Aircraft | B738/M-SDE2E3FGHIRWXY/LB1 |
Departure
| Time | N/A |
|---|---|
| Airport | Amsterdam Airport Schiphol (EHAM) |
Arrival
| Time | 2026-05-01 09:03 |
|---|---|
| Airport | Cristiano Ronaldo International Airport (LPMA) |
| Time | Latitude | Longitude | Altitude | Speed | Heading |
|---|---|---|---|---|---|
| 2026-05-01 07:23 | 41.10608 | -6.38256 | 38155 ft | 419 kts | 230° |
| 2026-05-01 07:24 | 41.04855 | -6.47083 | 38156 ft | 428 kts | 229° |
| 2026-05-01 07:24 | 41.00934 | -6.53050 | 38155 ft | 435 kts | 228° |
| 2026-05-01 07:25 | 40.96904 | -6.59150 | 38155 ft | 443 kts | 227° |
| 2026-05-01 07:25 | 40.92824 | -6.65297 | 38156 ft | 447 kts | 227° |
| 2026-05-01 07:26 | 40.88720 | -6.71458 | 38154 ft | 445 kts | 227° |
| 2026-05-01 07:26 | 40.84616 | -6.77606 | 38155 ft | 444 kts | 227° |
| 2026-05-01 07:27 | 40.80534 | -6.83707 | 38155 ft | 444 kts | 227° |
| 2026-05-01 07:27 | 40.76454 | -6.89794 | 38155 ft | 445 kts | 227° |
| 2026-05-01 07:28 | 40.72347 | -6.95911 | 38155 ft | 445 kts | 227° |
| 2026-05-01 07:28 | 40.68246 | -7.02003 | 38151 ft | 444 kts | 227° |
| 2026-05-01 07:29 | 40.64128 | -7.08106 | 38144 ft | 444 kts | 227° |
| 2026-05-01 07:29 | 40.60040 | -7.14153 | 38137 ft | 444 kts | 227° |
| 2026-05-01 07:30 | 40.55927 | -7.20224 | 38130 ft | 444 kts | 228° |
| 2026-05-01 07:30 | 40.51824 | -7.26267 | 38128 ft | 444 kts | 228° |
| 2026-05-01 07:31 | 40.47700 | -7.32333 | 38128 ft | 445 kts | 228° |
| 2026-05-01 07:32 | 40.37397 | -7.47435 | 38128 ft | 445 kts | 228° |
| 2026-05-01 07:33 | 40.31208 | -7.56474 | 38128 ft | 444 kts | 228° |
| 2026-05-01 07:33 | 40.25037 | -7.65459 | 38129 ft | 445 kts | 227° |
| 2026-05-01 07:34 | 40.18823 | -7.74473 | 38127 ft | 444 kts | 227° |
| 2026-05-01 07:35 | 40.14695 | -7.80447 | 38127 ft | 443 kts | 227° |
| 2026-05-01 07:35 | 40.10560 | -7.86421 | 38128 ft | 444 kts | 227° |
| 2026-05-01 07:36 | 40.06393 | -7.92429 | 38128 ft | 444 kts | 227° |
| 2026-05-01 07:36 | 40.02260 | -7.98380 | 38128 ft | 444 kts | 227° |
| 2026-05-01 07:37 | 39.96061 | -8.07281 | 38129 ft | 444 kts | 227° |
| 2026-05-01 07:37 | 39.91919 | -8.13215 | 38128 ft | 444 kts | 227° |
| 2026-05-01 07:38 | 39.87826 | -8.19069 | 38128 ft | 444 kts | 227° |
| 2026-05-01 07:39 | 39.81696 | -8.27810 | 38128 ft | 445 kts | 227° |
| 2026-05-01 07:39 | 39.75394 | -8.36773 | 38128 ft | 444 kts | 227° |
| 2026-05-01 07:40 | 39.71268 | -8.42628 | 38128 ft | 444 kts | 227° |
| 2026-05-01 07:40 | 39.67143 | -8.48467 | 37485 ft | 435 kts | 227° |
| 2026-05-01 07:41 | 39.65100 | -8.51329 | 37127 ft | 428 kts | 226° |
| 2026-05-01 07:41 | 39.63053 | -8.54143 | 37128 ft | 429 kts | 226° |
| 2026-05-01 07:41 | 39.58903 | -8.59836 | 37130 ft | 442 kts | 226° |
| 2026-05-01 07:42 | 39.56801 | -8.62721 | 37127 ft | 446 kts | 226° |
| 2026-05-01 07:42 | 39.52549 | -8.68548 | 37123 ft | 443 kts | 226° |
| 2026-05-01 07:43 | 39.48320 | -8.74332 | 37074 ft | 446 kts | 226° |
| 2026-05-01 07:43 | 39.41998 | -8.82961 | 37131 ft | 443 kts | 226° |
| 2026-05-01 07:44 | 39.33500 | -8.94524 | 37129 ft | 443 kts | 226° |
| 2026-05-01 07:45 | 39.29263 | -9.00273 | 37136 ft | 442 kts | 226° |
| 2026-05-01 07:45 | 39.25038 | -9.05993 | 37144 ft | 441 kts | 226° |
| 2026-05-01 07:46 | 39.20802 | -9.11718 | 37151 ft | 441 kts | 227° |
| 2026-05-01 07:47 | 39.14481 | -9.20242 | 37155 ft | 441 kts | 227° |
| 2026-05-01 07:47 | 39.10253 | -9.25932 | 37155 ft | 441 kts | 227° |
| 2026-05-01 07:48 | 39.03920 | -9.34436 | 37155 ft | 441 kts | 227° |
| 2026-05-01 07:48 | 38.99663 | -9.40164 | 37155 ft | 443 kts | 225° |
| 2026-05-01 07:49 | 38.93199 | -9.48874 | 37156 ft | 460 kts | 224° |
| 2026-05-01 07:50 | 38.88714 | -9.54830 | 37156 ft | 471 kts | 225° |
| 2026-05-01 07:50 | 38.81855 | -9.63876 | 37153 ft | 472 kts | 225° |
| 2026-05-01 07:51 | 38.77294 | -9.69929 | 37155 ft | 470 kts | 224° |
| 2026-05-01 07:52 | 38.70504 | -9.78916 | 37155 ft | 471 kts | 224° |
| 2026-05-01 07:52 | 38.65941 | -9.84941 | 37155 ft | 471 kts | 224° |
| 2026-05-01 07:53 | 38.59116 | -9.93929 | 37155 ft | 471 kts | 224° |
| 2026-05-01 07:53 | 38.54561 | -9.99914 | 37155 ft | 471 kts | 224° |
| 2026-05-01 07:55 | 38.43137 | -10.14804 | 37155 ft | 471 kts | 224° |
| 2026-05-01 07:56 | 38.31701 | -10.29639 | 37155 ft | 471 kts | 224° |
| 2026-05-01 07:57 | 38.24831 | -10.38515 | 37155 ft | 471 kts | 224° |
| 2026-05-01 07:58 | 38.15639 | -10.50355 | 37155 ft | 471 kts | 224° |
| 2026-05-01 07:59 | 38.06482 | -10.62105 | 37155 ft | 471 kts | 224° |
| 2026-05-01 08:00 | 37.92663 | -10.79753 | 37155 ft | 471 kts | 224° |
| 2026-05-01 08:01 | 37.83398 | -10.91485 | 37155 ft | 473 kts | 225° |
| 2026-05-01 08:02 | 37.76486 | -11.00206 | 37154 ft | 465 kts | 225° |
| 2026-05-01 08:03 | 37.69694 | -11.08824 | 37155 ft | 462 kts | 225° |
| 2026-05-01 08:03 | 37.62882 | -11.17436 | 37155 ft | 464 kts | 225° |
| 2026-05-01 08:04 | 37.53773 | -11.28886 | 37155 ft | 463 kts | 225° |
| 2026-05-01 08:05 | 37.46944 | -11.37439 | 37155 ft | 463 kts | 225° |
| 2026-05-01 08:06 | 37.40081 | -11.46008 | 37155 ft | 463 kts | 225° |
| 2026-05-01 08:07 | 37.30943 | -11.57379 | 37155 ft | 463 kts | 225° |
| 2026-05-01 08:08 | 37.24074 | -11.65899 | 37155 ft | 463 kts | 225° |
| 2026-05-01 08:09 | 37.14909 | -11.77232 | 37155 ft | 463 kts | 225° |
| 2026-05-01 08:09 | 37.10347 | -11.82856 | 37155 ft | 464 kts | 225° |
| 2026-05-01 08:10 | 37.01065 | -11.94276 | 37155 ft | 479 kts | 225° |
| 2026-05-01 08:11 | 36.96178 | -12.00298 | 37156 ft | 492 kts | 224° |
| 2026-05-01 08:11 | 36.91308 | -12.06263 | 37154 ft | 494 kts | 224° |
| 2026-05-01 08:12 | 36.83980 | -12.15183 | 37155 ft | 491 kts | 224° |
| 2026-05-01 08:13 | 36.76648 | -12.24100 | 37155 ft | 491 kts | 224° |
| 2026-05-01 08:13 | 36.69305 | -12.33012 | 37155 ft | 491 kts | 224° |
| 2026-05-01 08:14 | 36.64424 | -12.38923 | 37155 ft | 491 kts | 224° |
| 2026-05-01 08:14 | 36.59513 | -12.44860 | 37155 ft | 491 kts | 224° |
| 2026-05-01 08:15 | 36.52188 | -12.53694 | 37155 ft | 491 kts | 224° |
| 2026-05-01 08:16 | 36.47334 | -12.59536 | 37155 ft | 491 kts | 224° |
| 2026-05-01 08:16 | 36.42422 | -12.65435 | 37155 ft | 491 kts | 223° |
| 2026-05-01 08:17 | 36.36671 | -12.72335 | 37155 ft | 491 kts | 223° |
| 2026-05-01 08:17 | 36.32597 | -12.77213 | 37155 ft | 491 kts | 223° |
| 2026-05-01 08:18 | 36.27697 | -12.83066 | 37155 ft | 491 kts | 223° |
| 2026-05-01 08:19 | 36.17874 | -12.94770 | 37155 ft | 491 kts | 223° |
| 2026-05-01 08:19 | 36.12947 | -13.00621 | 37151 ft | 490 kts | 224° |
| 2026-05-01 08:20 | 36.08054 | -13.06424 | 37139 ft | 486 kts | 224° |
| 2026-05-01 08:20 | 36.03200 | -13.12172 | 37131 ft | 483 kts | 224° |
| 2026-05-01 08:21 | 35.98362 | -13.17891 | 37128 ft | 480 kts | 224° |
| 2026-05-01 08:21 | 35.93557 | -13.23561 | 37128 ft | 478 kts | 224° |
| 2026-05-01 08:22 | 35.88773 | -13.29193 | 37128 ft | 478 kts | 224° |
| 2026-05-01 08:22 | 35.83960 | -13.34851 | 37128 ft | 479 kts | 224° |
| 2026-05-01 08:23 | 35.79120 | -13.40529 | 37128 ft | 479 kts | 224° |
| 2026-05-01 08:23 | 35.74317 | -13.46153 | 37128 ft | 479 kts | 224° |
| 2026-05-01 08:24 | 35.69499 | -13.51786 | 37128 ft | 479 kts | 224° |
| 2026-05-01 08:24 | 35.64692 | -13.57396 | 37128 ft | 479 kts | 224° |
| 2026-05-01 08:25 | 35.59835 | -13.63054 | 37128 ft | 479 kts | 224° |
| 2026-05-01 08:25 | 35.55036 | -13.68636 | 37128 ft | 479 kts | 224° |
| 2026-05-01 08:26 | 35.50216 | -13.74233 | 37128 ft | 479 kts | 223° |
| 2026-05-01 08:26 | 35.45410 | -13.79804 | 37128 ft | 479 kts | 224° |
| 2026-05-01 08:27 | 35.40570 | -13.85405 | 37128 ft | 479 kts | 224° |
| 2026-05-01 08:27 | 35.35737 | -13.90986 | 37128 ft | 479 kts | 223° |
| 2026-05-01 08:28 | 35.30893 | -13.96570 | 37128 ft | 478 kts | 223° |
| 2026-05-01 08:28 | 35.26062 | -14.02130 | 37128 ft | 479 kts | 223° |
| 2026-05-01 08:29 | 35.21248 | -14.07660 | 37128 ft | 479 kts | 223° |
| 2026-05-01 08:29 | 35.16376 | -14.13248 | 37128 ft | 479 kts | 224° |
| 2026-05-01 08:30 | 35.11528 | -14.18798 | 37128 ft | 479 kts | 223° |
| 2026-05-01 08:30 | 35.06693 | -14.24324 | 37128 ft | 479 kts | 223° |
| 2026-05-01 08:31 | 35.01819 | -14.29885 | 37127 ft | 480 kts | 224° |
| 2026-05-01 08:31 | 34.96943 | -14.35440 | 37129 ft | 487 kts | 224° |
| 2026-05-01 08:32 | 34.91962 | -14.41104 | 37128 ft | 494 kts | 224° |
| 2026-05-01 08:32 | 34.86912 | -14.46839 | 37128 ft | 500 kts | 224° |
| 2026-05-01 08:33 | 34.81828 | -14.52599 | 37127 ft | 500 kts | 224° |
| 2026-05-01 08:33 | 34.76784 | -14.58304 | 37127 ft | 499 kts | 224° |
| 2026-05-01 08:34 | 34.71698 | -14.64045 | 37128 ft | 499 kts | 224° |
| 2026-05-01 08:34 | 34.66653 | -14.69735 | 37128 ft | 499 kts | 223° |
| 2026-05-01 08:35 | 34.61589 | -14.75438 | 37128 ft | 499 kts | 223° |
| 2026-05-01 08:35 | 34.56526 | -14.81125 | 37128 ft | 499 kts | 223° |
| 2026-05-01 08:36 | 34.51442 | -14.86827 | 37128 ft | 499 kts | 223° |
| 2026-05-01 08:36 | 34.46366 | -14.92508 | 37128 ft | 498 kts | 223° |
| 2026-05-01 08:37 | 34.41325 | -14.98139 | 37128 ft | 497 kts | 223° |
| 2026-05-01 08:37 | 34.36243 | -15.03807 | 37128 ft | 496 kts | 223° |
| 2026-05-01 08:38 | 34.31214 | -15.09407 | 37128 ft | 495 kts | 223° |
| 2026-05-01 08:38 | 34.26151 | -15.15035 | 37128 ft | 494 kts | 223° |
| 2026-05-01 08:39 | 34.21055 | -15.20612 | 37127 ft | 494 kts | 220° |
| 2026-05-01 08:39 | 34.15559 | -15.25578 | 37129 ft | 495 kts | 216° |
| 2026-05-01 08:40 | 34.07323 | -15.32838 | 36529 ft | 487 kts | 216° |
| 2026-05-01 08:40 | 34.04606 | -15.35237 | 35904 ft | 482 kts | 216° |
| 2026-05-01 08:40 | 34.01951 | -15.37580 | 35319 ft | 476 kts | 216° |
| 2026-05-01 08:41 | 33.99293 | -15.39924 | 34723 ft | 470 kts | 216° |
| 2026-05-01 08:41 | 33.96706 | -15.42204 | 34141 ft | 465 kts | 216° |
| 2026-05-01 08:41 | 33.94103 | -15.44496 | 33553 ft | 460 kts | 216° |
| 2026-05-01 08:41 | 33.91535 | -15.46758 | 32973 ft | 459 kts | 216° |
| 2026-05-01 08:42 | 33.88961 | -15.49021 | 32388 ft | 458 kts | 216° |
| 2026-05-01 08:42 | 33.86435 | -15.51241 | 31810 ft | 453 kts | 216° |
| 2026-05-01 08:42 | 33.83908 | -15.53461 | 31233 ft | 447 kts | 216° |
| 2026-05-01 08:42 | 33.81432 | -15.55634 | 30664 ft | 442 kts | 216° |
| 2026-05-01 08:43 | 33.78956 | -15.57806 | 30094 ft | 437 kts | 216° |
| 2026-05-01 08:43 | 33.76528 | -15.59933 | 29531 ft | 432 kts | 216° |
| 2026-05-01 08:43 | 33.74112 | -15.62049 | 28973 ft | 429 kts | 216° |
| 2026-05-01 08:43 | 33.71704 | -15.64156 | 28411 ft | 431 kts | 216° |
| 2026-05-01 08:44 | 33.69276 | -15.66280 | 27840 ft | 426 kts | 216° |
| 2026-05-01 08:44 | 33.66912 | -15.68349 | 27285 ft | 420 kts | 216° |
| 2026-05-01 08:44 | 33.64565 | -15.70401 | 26732 ft | 415 kts | 216° |
| 2026-05-01 08:44 | 33.62238 | -15.72432 | 26183 ft | 410 kts | 216° |
| 2026-05-01 08:45 | 33.59963 | -15.74418 | 25645 ft | 405 kts | 216° |
| 2026-05-01 08:45 | 33.57696 | -15.76397 | 25111 ft | 407 kts | 216° |
| 2026-05-01 08:45 | 33.55468 | -15.78495 | 24571 ft | 405 kts | 221° |
| 2026-05-01 08:45 | 33.53448 | -15.80779 | 24040 ft | 399 kts | 225° |
| 2026-05-01 08:46 | 33.51494 | -15.83091 | 23510 ft | 395 kts | 224° |
| 2026-05-01 08:46 | 33.49528 | -15.85395 | 22977 ft | 390 kts | 224° |
| 2026-05-01 08:46 | 33.47606 | -15.87642 | 22455 ft | 385 kts | 224° |
| 2026-05-01 08:46 | 33.45684 | -15.89890 | 21937 ft | 388 kts | 224° |
| 2026-05-01 08:47 | 33.43770 | -15.92129 | 21411 ft | 385 kts | 224° |
| 2026-05-01 08:47 | 33.41875 | -15.94344 | 20892 ft | 380 kts | 224° |
| 2026-05-01 08:47 | 33.40003 | -15.96531 | 20378 ft | 376 kts | 224° |
| 2026-05-01 08:47 | 33.38156 | -15.98686 | 19871 ft | 371 kts | 224° |
| 2026-05-01 08:48 | 33.36322 | -16.00827 | 19365 ft | 367 kts | 224° |
| 2026-05-01 08:48 | 33.34483 | -16.02972 | 18861 ft | 370 kts | 224° |
| 2026-05-01 08:48 | 33.32639 | -16.05120 | 18347 ft | 367 kts | 224° |
| 2026-05-01 08:48 | 33.30849 | -16.07206 | 17850 ft | 363 kts | 224° |
| 2026-05-01 08:49 | 33.29046 | -16.09305 | 17350 ft | 358 kts | 224° |
| 2026-05-01 08:49 | 33.27285 | -16.11354 | 16860 ft | 354 kts | 224° |
| 2026-05-01 08:49 | 33.25543 | -16.13379 | 16374 ft | 350 kts | 224° |
| 2026-05-01 08:49 | 33.23792 | -16.15414 | 15889 ft | 355 kts | 224° |
| 2026-05-01 08:50 | 33.22039 | -16.17450 | 15393 ft | 350 kts | 224° |
| 2026-05-01 08:50 | 33.20314 | -16.19453 | 14909 ft | 346 kts | 224° |
| 2026-05-01 08:50 | 33.18607 | -16.21434 | 14429 ft | 342 kts | 224° |
| 2026-05-01 08:50 | 33.16912 | -16.23400 | 13951 ft | 338 kts | 224° |
| 2026-05-01 08:51 | 33.15221 | -16.25358 | 13474 ft | 337 kts | 224° |
| 2026-05-01 08:51 | 33.13534 | -16.27312 | 12997 ft | 339 kts | 224° |
| 2026-05-01 08:51 | 33.11857 | -16.29253 | 12519 ft | 335 kts | 224° |
| 2026-05-01 08:51 | 33.10198 | -16.31173 | 12047 ft | 331 kts | 224° |
| 2026-05-01 08:52 | 33.08543 | -16.33086 | 11576 ft | 327 kts | 224° |
| 2026-05-01 08:52 | 33.06927 | -16.34953 | 11116 ft | 324 kts | 224° |
| 2026-05-01 08:52 | 33.05315 | -16.36816 | 10654 ft | 320 kts | 224° |
| 2026-05-01 08:52 | 33.03727 | -16.38650 | 10365 ft | 311 kts | 224° |
| 2026-05-01 08:53 | 33.02213 | -16.40398 | 10228 ft | 297 kts | 224° |
| 2026-05-01 08:53 | 33.00738 | -16.42099 | 9898 ft | 293 kts | 224° |
| 2026-05-01 08:53 | 32.99291 | -16.43768 | 9528 ft | 290 kts | 224° |
| 2026-05-01 08:53 | 32.97852 | -16.45426 | 9166 ft | 287 kts | 224° |
| 2026-05-01 08:54 | 32.96418 | -16.47079 | 8807 ft | 284 kts | 225° |
| 2026-05-01 08:54 | 32.94997 | -16.48716 | 8450 ft | 281 kts | 225° |
| 2026-05-01 08:54 | 32.93605 | -16.50318 | 8101 ft | 279 kts | 225° |
| 2026-05-01 08:54 | 32.92187 | -16.51907 | 7748 ft | 276 kts | 223° |
| 2026-05-01 08:55 | 32.90779 | -16.53406 | 7405 ft | 274 kts | 222° |
| 2026-05-01 08:55 | 32.89367 | -16.54911 | 7061 ft | 272 kts | 222° |
| 2026-05-01 08:55 | 32.87938 | -16.56435 | 6716 ft | 276 kts | 222° |
| 2026-05-01 08:55 | 32.86526 | -16.57941 | 6383 ft | 274 kts | 222° |
| 2026-05-01 08:56 | 32.85112 | -16.59448 | 6228 ft | 265 kts | 222° |
| 2026-05-01 08:56 | 32.83756 | -16.60900 | 5847 ft | 268 kts | 222° |
| 2026-05-01 08:56 | 32.82316 | -16.62351 | 5245 ft | 275 kts | 215° |
| 2026-05-01 08:56 | 32.80657 | -16.63481 | 4811 ft | 273 kts | 202° |
| 2026-05-01 08:57 | 32.78874 | -16.64243 | 4466 ft | 269 kts | 198° |
| 2026-05-01 08:57 | 32.77134 | -16.64949 | 4141 ft | 265 kts | 198° |
| 2026-05-01 08:57 | 32.75394 | -16.65655 | 3821 ft | 261 kts | 198° |
| 2026-05-01 08:57 | 32.73696 | -16.66347 | 3507 ft | 257 kts | 198° |
| 2026-05-01 08:58 | 32.72027 | -16.67024 | 3197 ft | 253 kts | 197° |
| 2026-05-01 08:58 | 32.70374 | -16.67700 | 2957 ft | 247 kts | 197° |
| 2026-05-01 08:58 | 32.68784 | -16.68344 | 2910 ft | 234 kts | 197° |
| 2026-05-01 08:58 | 32.67280 | -16.68947 | 2908 ft | 227 kts | 197° |
| 2026-05-01 08:59 | 32.65780 | -16.69540 | 2908 ft | 224 kts | 198° |
| 2026-05-01 08:59 | 32.64310 | -16.70143 | 2896 ft | 224 kts | 199° |
| 2026-05-01 08:59 | 32.62935 | -16.70981 | 2757 ft | 223 kts | 215° |
| 2026-05-01 08:59 | 32.61826 | -16.72265 | 2596 ft | 223 kts | 234° |
| 2026-05-01 09:00 | 32.61110 | -16.73885 | 2410 ft | 222 kts | 253° |
| 2026-05-01 09:00 | 32.60851 | -16.75669 | 2200 ft | 220 kts | 271° |
| 2026-05-01 09:00 | 32.61081 | -16.77453 | 2021 ft | 217 kts | 295° |
| 2026-05-01 09:00 | 32.61848 | -16.78980 | 1727 ft | 218 kts | 308° |
| 2026-05-01 09:01 | 32.62941 | -16.80100 | 1404 ft | 205 kts | 338° |
| 2026-05-01 09:01 | 32.64264 | -16.80385 | 1172 ft | 183 kts | 1° |
| 2026-05-01 09:01 | 32.65470 | -16.80363 | 924 ft | 164 kts | 2° |
| 2026-05-01 09:01 | 32.66499 | -16.80298 | 719 ft | 133 kts | 12° |
| 2026-05-01 09:02 | 32.67335 | -16.79939 | 501 ft | 131 kts | 28° |
| 2026-05-01 09:02 | 32.68129 | -16.79363 | 433 ft | 137 kts | 40° |
| 2026-05-01 09:02 | 32.68824 | -16.78581 | 209 ft | 131 kts | 46° |
| 2026-05-01 09:02 | 32.69391 | -16.77905 | 191 ft | 88 kts | 41° |
| 2026-05-01 09:03 | 32.69656 | -16.77601 | 209 ft | 28 kts | 43° |
| 2026-05-01 09:03 | 32.69743 | -16.77503 | 212 ft | 15 kts | 43° |
| 2026-05-01 09:03 | 32.69853 | -16.77371 | 207 ft | 29 kts | 44° |
| 2026-05-01 09:03 | 32.69938 | -16.77182 | 184 ft | 20 kts | 137° |
| 2026-05-01 09:04 | 32.69908 | -16.77173 | 177 ft | 2 kts | 193° |
| 2026-05-01 09:04 | 32.69831 | -16.77192 | 168 ft | 15 kts | 210° |
| 2026-05-01 09:04 | 32.69763 | -16.77268 | 171 ft | 11 kts | 226° |
| 2026-05-01 09:04 | 32.69719 | -16.77321 | 174 ft | 6 kts | 226° |
| 2026-05-01 09:05 | 32.69693 | -16.77354 | 176 ft | 5 kts | 227° |
| 2026-05-01 09:05 | 32.69658 | -16.77398 | 177 ft | 9 kts | 227° |
| 2026-05-01 09:05 | 32.69606 | -16.77462 | 179 ft | 12 kts | 227° |
| 2026-05-01 09:05 | 32.69542 | -16.77543 | 180 ft | 14 kts | 227° |
| 2026-05-01 09:06 | 32.69480 | -16.77618 | 180 ft | 9 kts | 218° |
| 2026-05-01 09:06 | 32.69419 | -16.77597 | 168 ft | 5 kts | 143° |
| 2026-05-01 09:06 | 32.69414 | -16.77591 | 166 ft | 0 kts | 135° |